Time;durP1;ratioP1;P1;durP2;ratioP2;P2;SDS_P1;SDS_P2;PMS_P1;PMS_P2;Temp;Humidity;BMP_temperature;BMP_pressure;BME280_temperature;BME280_humidity;BME280_pressure;Samples;Min_cycle;Max_cycle;Signal;HPM_P1;HPM_P2
2022/01/22 00:01:17;;;;;;;2.27;0.60;;;;;;;-1.24;74.92;98450.00;1832262;75;21084;-53
2022/01/22 00:03:44;;;;;;;4.87;0.70;;;;;;;-1.25;75.22;98447.39;1834849;75;20876;-53
2022/01/22 00:06:10;;;;;;;4.93;0.90;;;;;;;-1.28;75.43;98449.67;1832785;76;20939;-53
2022/01/22 00:08:36;;;;;;;2.07;0.63;;;;;;;-1.30;75.66;98448.83;1769437;79;21106;-53
2022/01/22 00:11:03;;;;;;;1.10;0.60;;;;;;;-1.27;75.94;98458.42;1763795;78;21170;-53
2022/01/22 00:16:17;;;;;;;2.77;0.80;;;;;;;-1.28;76.22;98451.44;1760178;78;21077;-53
2022/01/22 00:18:45;;;;;;;1.77;0.90;;;;;;;-1.30;76.34;98450.14;1791970;77;21320;-53
2022/01/22 00:21:11;;;;;;;1.87;0.60;;;;;;;-1.29;76.50;98445.28;1794970;77;21099;-53
2022/01/22 00:23:40;;;;;;;1.70;0.63;;;;;;;-1.28;76.63;98455.40;1798721;77;21092;-53
2022/01/22 00:26:06;;;;;;;1.67;0.70;;;;;;;-1.32;76.75;98459.86;1789187;77;22393;-53
2022/01/22 00:28:32;;;;;;;1.37;0.70;;;;;;;-1.33;76.81;98457.25;1796594;77;21005;-53
2022/01/22 00:30:58;;;;;;;3.33;0.70;;;;;;;-1.33;76.99;98451.52;1777880;79;21387;-53
2022/01/22 00:33:25;;;;;;;1.87;0.90;;;;;;;-1.32;77.11;98449.75;1772713;78;21099;-51
2022/01/22 00:35:51;;;;;;;3.60;0.80;;;;;;;-1.30;77.26;98462.47;1773587;79;21060;-51
2022/01/22 00:38:18;;;;;;;4.03;0.73;;;;;;;-1.31;77.24;98460.28;1777421;78;21752;-51
2022/01/22 00:40:50;;;;;;;1.63;0.70;;;;;;;-1.30;77.26;98467.30;1781173;78;20965;-51
2022/01/22 00:43:13;;;;;;;2.03;0.70;;;;;;;-1.30;77.32;98462.02;1774706;79;20918;-51
2022/01/22 00:45:41;;;;;;;2.67;0.77;;;;;;;-1.30;77.41;98459.38;1774766;79;20926;-51
2022/01/22 00:48:07;;;;;;;3.83;0.70;;;;;;;-1.27;77.40;98463.70;1776052;78;21521;-51
2022/01/22 00:50:33;;;;;;;4.20;0.70;;;;;;;-1.28;77.41;98454.08;1774353;78;21110;-51
2022/01/22 00:53:00;;;;;;;1.90;0.77;;;;;;;-1.27;77.47;98454.47;1774946;78;21301;-51
2022/01/22 00:55:26;;;;;;;2.60;0.60;;;;;;;-1.26;77.43;98458.84;1773734;78;21493;-52
2022/01/22 00:57:53;;;;;;;1.27;0.63;;;;;;;-1.26;77.39;98459.72;1774166;78;21032;-51
2022/01/22 01:00:19;;;;;;;2.23;0.60;;;;;;;-1.26;77.37;98458.84;1778627;79;21479;-51
2022/01/22 01:02:46;;;;;;;1.93;0.67;;;;;;;-1.27;77.42;98458.42;1773120;79;21734;-51
2022/01/22 01:05:12;;;;;;;2.00;0.60;;;;;;;-1.27;77.47;98459.30;1771694;78;21458;-51
2022/01/22 01:07:40;;;;;;;3.13;0.73;;;;;;;-1.25;77.45;98458.82;1781089;78;21519;-51
2022/01/22 01:10:07;;;;;;;2.30;0.70;;;;;;;-1.23;77.38;98457.47;1754870;79;21048;-51
2022/01/22 01:12:35;;;;;;;3.07;0.70;;;;;;;-1.24;77.32;98459.69;1791962;79;21345;-51
2022/01/22 01:15:36;;;;;;;1.90;0.60;;;;;;;-1.26;77.36;98454.89;1763079;78;21123;-51
2022/01/22 01:34:09;;;;;;;2.05;0.50;;;;;;;-1.34;77.35;98460.78;1790726;77;21082;-52
2022/01/22 01:36:29;;;;;;;1.00;0.43;;;;;;;-1.36;77.25;98467.89;1790886;79;21411;-52
2022/01/22 01:38:59;;;;;;;2.30;0.87;;;;;;;-1.37;77.26;98481.54;1761046;80;21072;-52
2022/01/22 01:41:42;;;;;;;2.30;0.50;;;;;;;-1.38;77.17;98469.69;1759476;80;22320;-52
2022/01/22 01:43:58;;;;;;;1.98;0.62;;;;;;;-1.41;77.14;98477.66;1760096;78;21055;-52
2022/01/22 01:46:51;;;;;;;1.77;0.50;;;;;;;-1.42;77.26;98474.14;1679515;83;21101;-52
2022/01/22 01:49:18;;;;;;;2.47;0.50;;;;;;;-1.44;77.18;98469.34;1681300;83;21453;-52
2022/01/22 01:51:45;;;;;;;2.73;1.17;;;;;;;-1.47;77.20;98474.70;1726906;79;21364;-52
2022/01/22 01:59:38;;;;;;;1.10;0.60;;;;;;;-1.48;77.10;98482.20;1791152;77;21248;-52
2022/01/22 02:02:05;;;;;;;2.70;0.43;;;;;;;-1.49;77.09;98477.81;1802457;77;21666;-52
2022/01/22 02:04:33;;;;;;;1.47;0.50;;;;;;;-1.49;77.13;98480.91;1777593;78;20931;-52
2022/01/22 02:06:59;;;;;;;1.10;0.50;;;;;;;-1.52;77.13;98482.70;1776959;79;22398;-51
2022/01/22 02:09:26;;;;;;;1.13;0.60;;;;;;;-1.55;77.24;98486.73;1740459;79;21357;-51
2022/01/22 02:12:05;;;;;;;3.60;0.50;;;;;;;-1.56;77.33;98483.68;1775369;78;21061;-51
2022/01/22 02:25:32;;;;;;;0.73;0.50;;;;;;;-1.57;77.50;98485.02;1766923;78;21024;-51
2022/01/22 02:28:00;;;;;;;0.70;0.50;;;;;;;-1.57;77.58;98480.61;1771663;79;21499;-51
2022/01/22 02:30:31;;;;;;;1.20;0.43;;;;;;;-1.56;77.60;98477.08;1776960;78;20882;-51
2022/01/22 02:35:58;;;;;;;1.70;0.50;;;;;;;-1.57;77.59;98479.30;1775056;79;21846;-51
2022/01/22 02:38:17;;;;;;;2.00;0.50;;;;;;;-1.56;77.60;98486.31;1775662;79;20938;-50
2022/01/22 02:40:45;;;;;;;1.07;0.40;;;;;;;-1.55;77.66;98490.70;1776828;79;20873;-51
2022/01/22 02:43:11;;;;;;;0.87;0.50;;;;;;;-1.52;77.68;98495.89;1774864;79;20910;-51
2022/01/22 02:45:40;;;;;;;1.47;0.60;;;;;;;-1.49;77.63;98499.37;1774215;79;22227;-51
2022/01/22 02:48:06;;;;;;;1.90;0.57;;;;;;;-1.47;77.58;98504.19;1781100;78;20935;-51
2022/01/22 02:50:33;;;;;;;2.00;0.47;;;;;;;-1.46;77.54;98500.65;1778387;79;20937;-51
2022/01/22 02:53:08;;;;;;;1.53;0.40;;;;;;;-1.45;77.60;98503.71;1760818;79;20941;-51
2022/01/22 02:55:35;;;;;;;3.43;0.50;;;;;;;-1.44;77.59;98499.69;1777414;79;20966;-51
2022/01/22 02:58:02;;;;;;;2.67;0.60;;;;;;;-1.42;77.50;98504.95;1780610;78;21781;-51
2022/01/22 03:00:28;;;;;;;0.50;0.30;;;;;;;-1.42;77.46;98507.59;1776299;79;20910;-51
2022/01/22 03:02:55;;;;;;;1.03;0.50;;;;;;;-1.42;77.41;98515.05;1774292;79;21759;-51
2022/01/22 03:05:23;;;;;;;2.93;0.40;;;;;;;-1.45;77.30;98509.86;1788017;79;20857;-51
2022/01/22 03:07:53;;;;;;;1.30;0.50;;;;;;;-1.47;77.40;98514.74;1794860;79;20987;-51
2022/01/22 03:10:22;;;;;;;5.30;0.60;;;;;;;-1.48;77.38;98507.72;1793540;79;21080;-51
2022/01/22 03:18:02;;;;;;;2.90;0.60;;;;;;;-1.47;77.33;98512.10;1775192;79;21084;-51
2022/01/22 03:27:19;;;;;;;2.03;0.53;;;;;;;-1.48;77.33;98511.23;1724281;79;21558;-52
2022/01/22 03:28:29;;;;;;;1.37;0.40;;;;;;;-1.45;77.27;98501.94;1773906;79;21048;-52
2022/01/22 03:30:53;;;;;;;1.20;0.40;;;;;;;-1.43;77.22;98501.89;1776476;79;22409;-51
2022/01/22 03:33:24;;;;;;;1.67;0.50;;;;;;;-1.42;77.16;98500.98;1744232;79;21537;-51
2022/01/22 03:35:54;;;;;;;1.20;0.50;;;;;;;-1.40;77.12;98507.98;1766854;80;21096;-51
2022/01/22 03:38:16;;;;;;;1.00;0.50;;;;;;;-1.36;77.15;98503.05;1760374;78;22168;-51
2022/01/22 03:40:48;;;;;;;0.90;0.40;;;;;;;-1.32;77.03;98499.91;1783921;77;21096;-51
2022/01/22 03:43:11;;;;;;;1.23;0.40;;;;;;;-1.30;76.87;98513.50;1788304;78;21562;-52
2022/01/22 03:45:37;;;;;;;2.20;0.50;;;;;;;-1.29;76.80;98513.05;1793226;78;21582;-51
2022/01/22 03:48:04;;;;;;;2.53;0.37;;;;;;;-1.28;76.71;98516.98;1780134;79;22484;-51
2022/01/22 03:50:31;;;;;;;1.10;0.50;;;;;;;-1.26;76.57;98524.84;1770638;79;22211;-52
2022/01/22 03:52:57;;;;;;;1.33;0.40;;;;;;;-1.27;76.44;98519.14;1782906;78;21476;-51
2022/01/22 03:56:07;;;;;;;1.20;0.40;;;;;;;-1.27;76.34;98520.47;1760910;79;21089;-52
2022/01/22 03:58:13;;;;;;;1.43;0.43;;;;;;;-1.27;76.29;98521.78;1770643;79;21417;-51
2022/01/22 04:00:41;;;;;;;3.20;1.40;;;;;;;-1.27;76.17;98527.06;1786819;79;21140;-51
2022/01/22 04:03:30;;;;;;;2.00;0.33;;;;;;;-1.30;76.02;98520.55;1782730;79;21108;-51
2022/01/22 04:06:27;;;;;;;0.90;0.40;;;;;;;-1.33;75.90;98530.71;1782621;79;21057;-51
2022/01/22 04:08:23;;;;;;;4.20;0.80;;;;;;;-1.37;75.84;98530.82;1780327;78;21045;-52
2022/01/22 04:10:50;;;;;;;1.30;0.53;;;;;;;-1.42;75.72;98526.06;1785518;78;21068;-51
2022/01/22 04:13:18;;;;;;;3.27;0.40;;;;;;;-1.45;75.71;98538.89;1782037;78;21186;-51
2022/01/22 04:15:46;;;;;;;1.77;0.40;;;;;;;-1.47;75.67;98535.86;1764807;78;20961;-51
2022/01/22 04:26:52;;;;;;;1.77;0.40;;;;;;;-1.56;75.38;98545.69;1766801;80;21060;-52
2022/01/22 04:29:04;;;;;;;1.53;0.50;;;;;;;-1.54;75.35;98558.41;1784751;79;20928;-51
2022/01/22 04:31:31;;;;;;;1.33;0.50;;;;;;;-1.55;75.22;98555.34;1769521;78;21467;-52
2022/01/22 04:34:00;;;;;;;2.23;0.43;;;;;;;-1.56;75.22;98562.84;1767633;78;21092;-52
2022/01/22 04:36:26;;;;;;;3.20;0.47;;;;;;;-1.54;75.15;98558.41;1761247;80;22521;-51
2022/01/22 04:38:53;;;;;;;1.93;0.40;;;;;;;-1.53;75.08;98556.17;1763642;78;21511;-51
2022/01/22 04:41:20;;;;;;;2.13;0.40;;;;;;;-1.53;75.08;98560.58;1766204;78;21061;-52
2022/01/22 04:43:49;;;;;;;0.97;0.30;;;;;;;-1.52;75.07;98557.04;1770732;79;20906;-52
2022/01/22 04:46:22;;;;;;;2.30;0.50;;;;;;;-1.50;75.06;98555.70;1774925;78;20867;-52
2022/01/22 04:56:59;;;;;;;;;;;;;;;-1.43;74.83;98559.50;1768336;79;21143;-51
2022/01/22 04:59:26;;;;;;;1.70;0.50;;;;;;;-1.41;74.71;98558.16;1765127;78;20217;-51
2022/01/22 05:01:52;;;;;;;1.87;0.40;;;;;;;-1.44;74.60;98562.16;1769086;78;21076;-51
2022/01/22 05:04:26;;;;;;;1.05;0.37;;;;;;;-1.46;74.54;98562.67;1747370;80;22250;-51
2022/01/22 05:07:09;;;;;;;1.93;0.40;;;;;;;-1.46;74.50;98567.50;1713761;79;21103;-51
2022/01/22 05:09:37;;;;;;;1.00;0.40;;;;;;;-1.47;74.44;98560.93;1756073;78;21120;-53
2022/01/22 05:12:07;;;;;;;1.57;0.50;;;;;;;-1.48;74.34;98556.55;1766739;80;21060;-53
2022/01/22 05:14:34;;;;;;;3.20;0.60;;;;;;;-1.46;74.34;98561.35;1723323;80;21399;-51
2022/01/22 05:17:04;;;;;;;2.00;0.40;;;;;;;-1.45;74.20;98561.33;1754181;80;21685;-50
2022/01/22 05:19:46;;;;;;;1.00;0.40;;;;;;;-1.46;74.12;98562.67;1753388;80;20944;-53
2022/01/22 05:22:14;;;;;;;2.67;0.50;;;;;;;-1.47;74.04;98569.72;1767422;78;21388;-53
2022/01/22 05:24:33;;;;;;;1.90;0.40;;;;;;;-1.47;73.99;98573.67;1747490;80;20903;-53
2022/01/22 05:32:22;;;;;;;3.17;0.40;;;;;;;-1.50;73.67;98574.17;1754304;80;20899;-53
2022/01/22 05:37:36;;;;;;;1.90;0.43;;;;;;;-1.51;73.53;98582.53;1788708;77;21426;-54
2022/01/22 05:40:04;;;;;;;2.30;0.40;;;;;;;-1.51;73.35;98581.22;1792604;77;20965;-53
2022/01/22 05:42:31;;;;;;;4.03;0.30;;;;;;;-1.54;73.26;98583.48;1798152;77;21427;-53
2022/01/22 05:44:57;;;;;;;4.63;0.40;;;;;;;-1.57;73.19;98591.89;1779207;78;20938;-53
2022/01/22 05:47:27;;;;;;;2.10;0.40;;;;;;;-1.59;73.17;98595.00;1775442;78;20989;-53
2022/01/22 05:49:53;;;;;;;0.70;0.30;;;;;;;-1.57;73.12;98598.49;1777103;79;20989;-53
2022/01/22 05:52:28;;;;;;;2.57;0.40;;;;;;;-1.60;73.02;98601.17;1784351;78;20870;-53
2022/01/22 05:55:23;;;;;;;0.77;0.40;;;;;;;-1.60;73.03;98603.81;1779778;79;21136;-54
2022/01/22 06:00:14;;;;;;;2.87;0.40;;;;;;;-1.60;72.99;98611.28;1777043;78;20949;-53
2022/01/22 06:02:46;;;;;;;0.98;0.40;;;;;;;-1.58;72.93;98613.45;1778715;78;20965;-53
2022/01/22 06:05:13;;;;;;;3.00;0.40;;;;;;;-1.57;72.84;98613.87;1779130;78;20893;-53
2022/01/22 06:07:40;;;;;;;1.33;0.40;;;;;;;-1.56;72.86;98618.70;1776325;78;22283;-53
2022/01/22 06:10:17;;;;;;;2.43;0.40;;;;;;;-1.56;72.96;98618.26;1751246;79;20978;-53
2022/01/22 06:12:58;;;;;;;1.17;0.30;;;;;;;-1.52;72.96;98619.05;1784749;79;21871;-53
2022/01/22 06:15:15;;;;;;;1.53;0.30;;;;;;;-1.49;72.93;98619.45;1775963;78;21040;-53
2022/01/22 06:17:59;;;;;;;3.30;0.50;;;;;;;-1.47;72.82;98623.82;1698821;82;21314;-53
2022/01/22 06:20:25;;;;;;;1.43;0.70;;;;;;;-1.45;72.82;98622.03;1752574;78;22124;-53
2022/01/22 06:22:52;;;;;;;1.30;0.40;;;;;;;-1.40;72.75;98624.13;1776865;78;21120;-53
2022/01/22 06:25:18;;;;;;;1.57;0.67;;;;;;;-1.35;72.59;98627.54;1771589;79;21116;-53
2022/01/22 06:27:44;;;;;;;0.67;0.30;;;;;;;-1.34;72.47;98633.24;1773778;79;21092;-53
2022/01/22 06:30:11;;;;;;;2.40;0.30;;;;;;;-1.31;72.36;98629.23;1742881;79;21421;-53
2022/01/22 06:32:40;;;;;;;1.53;0.30;;;;;;;-1.30;72.24;98632.75;1781490;77;21314;-53
2022/01/22 06:35:07;;;;;;;2.07;0.30;;;;;;;-1.29;72.13;98636.69;1725371;81;21067;-53
2022/01/22 06:37:34;;;;;;;0.80;0.30;;;;;;;-1.28;71.98;98635.79;1756927;79;21451;-53
2022/01/22 06:42:54;;;;;;;0.73;0.30;;;;;;;-1.25;71.79;98638.80;1755707;79;21567;-53
2022/01/22 06:45:22;;;;;;;0.87;0.40;;;;;;;-1.26;71.63;98637.05;1730019;81;21465;-53
2022/01/22 06:47:57;;;;;;;1.47;0.40;;;;;;;-1.26;71.63;98640.56;1742913;81;21044;-53
2022/01/22 06:50:26;;;;;;;1.07;0.30;;;;;;;-1.25;71.54;98642.77;1742881;81;21508;-53
2022/01/22 06:52:58;;;;;;;1.20;0.30;;;;;;;-1.24;71.48;98641.42;1741605;81;21039;-53
2022/01/22 06:55:44;;;;;;;1.63;0.30;;;;;;;-1.21;71.42;98630.81;1742176;79;21036;-53
2022/01/22 06:58:09;;;;;;;2.37;0.30;;;;;;;-1.21;71.19;98644.45;1746729;81;21210;-53
2022/01/22 07:00:37;;;;;;;1.30;0.40;;;;;;;-1.23;71.19;98642.29;1730708;81;21138;-53
2022/01/22 07:03:06;;;;;;;2.40;0.40;;;;;;;-1.23;71.16;98644.93;1756932;80;21054;-53
2022/01/22 07:05:34;;;;;;;1.00;0.40;;;;;;;-1.23;71.06;98652.41;1698114;81;21135;-53
2022/01/22 07:08:05;;;;;;;1.90;0.40;;;;;;;-1.23;71.06;98652.85;1762869;80;21401;-53
2022/01/22 07:10:33;;;;;;;0.93;0.40;;;;;;;-1.22;71.11;98658.56;1742966;80;21192;-53
2022/01/22 07:13:00;;;;;;;1.37;0.40;;;;;;;-1.20;71.06;98658.09;1764642;80;21069;-53
2022/01/22 07:15:26;;;;;;;1.10;0.40;;;;;;;-1.18;71.00;98661.55;1729301;81;21822;-53
2022/01/22 07:17:55;;;;;;;1.53;0.43;;;;;;;-1.17;70.96;98658.87;1759509;80;21084;-53
2022/01/22 07:20:29;;;;;;;1.87;0.40;;;;;;;-1.13;70.87;98655.75;1729832;81;21119;-53
2022/01/22 07:23:14;;;;;;;4.73;0.40;;;;;;;-1.10;70.84;98664.03;1725741;81;21097;-53
2022/01/22 07:25:33;;;;;;;2.70;0.40;;;;;;;-1.09;70.85;98671.06;1764134;80;21023;-53
2022/01/22 07:28:01;;;;;;;1.53;0.50;;;;;;;-1.09;70.86;98666.66;1765243;80;21019;-53
2022/01/22 07:30:30;;;;;;;2.13;0.40;;;;;;;-1.10;70.86;98667.55;1748584;81;21031;-53
2022/01/22 07:32:57;;;;;;;1.43;0.40;;;;;;;-1.06;70.91;98669.70;1730607;80;21022;-53
2022/01/22 07:35:23;;;;;;;2.30;0.40;;;;;;;-1.03;70.83;98671.84;1758613;80;22176;-53
2022/01/22 07:37:51;;;;;;;2.23;0.50;;;;;;;-1.01;70.70;98673.98;1755457;80;20958;-54
2022/01/22 07:40:20;;;;;;;2.77;0.50;;;;;;;-0.99;70.61;98674.83;1756167;80;21255;-53
2022/01/22 07:42:48;;;;;;;2.20;0.77;;;;;;;-0.97;70.52;98672.16;1753126;80;21324;-53
2022/01/22 07:45:17;;;;;;;1.10;0.40;;;;;;;-0.95;70.48;98677.84;1700915;80;21100;-53
2022/01/22 07:47:44;;;;;;;1.20;0.40;;;;;;;-0.92;70.43;98683.05;1752805;80;21127;-53
2022/01/22 07:50:12;;;;;;;1.60;0.30;;;;;;;-0.90;70.35;98680.39;1753400;80;21220;-53
2022/01/22 07:52:39;;;;;;;1.40;0.50;;;;;;;-0.88;70.27;98678.59;1752549;79;21353;-53
2022/01/22 07:55:07;;;;;;;2.57;0.40;;;;;;;-0.85;70.22;98686.47;1758330;80;21081;-53
2022/01/22 07:57:34;;;;;;;2.27;0.50;;;;;;;-0.82;70.10;98691.23;1760175;80;21394;-53
2022/01/22 08:00:05;;;;;;;2.10;0.53;;;;;;;-0.80;70.01;98688.56;1755872;79;21133;-53
2022/01/22 08:02:34;;;;;;;1.17;0.30;;;;;;;-0.78;69.79;98690.73;1756561;80;20878;-52
2022/01/22 08:05:18;;;;;;;1.45;0.30;;;;;;;-0.77;69.67;98695.12;1760995;80;20994;-52
2022/01/22 08:08:04;;;;;;;1.50;0.40;;;;;;;-0.74;69.57;98696.80;1756545;80;21068;-52
2022/01/22 08:10:36;;;;;;;1.70;0.43;;;;;;;-0.74;69.41;98695.48;1748571;80;21045;-52
2022/01/22 08:13:04;;;;;;;2.33;0.40;;;;;;;-0.74;69.24;98700.77;1755379;80;21157;-52
2022/01/22 08:15:30;;;;;;;1.10;0.50;;;;;;;-0.74;69.25;98704.73;1732385;80;21043;-52
2022/01/22 08:17:56;;;;;;;3.93;0.50;;;;;;;-0.73;69.15;98702.52;1757525;80;21108;-52
2022/01/22 08:20:24;;;;;;;1.00;0.40;;;;;;;-0.69;69.20;98702.89;1754512;80;21081;-52
2022/01/22 08:22:52;;;;;;;0.83;0.43;;;;;;;-0.66;69.04;98708.09;1759938;80;21001;-53
2022/01/22 08:25:29;;;;;;;4.90;0.50;;;;;;;-0.64;68.94;98708.94;1754562;80;21217;-52
2022/01/22 08:30:35;;;;;;;1.43;0.40;;;;;;;-0.64;68.92;98719.06;1753120;80;21050;-52
2022/01/22 08:33:35;;;;;;;1.73;0.40;;;;;;;-0.63;68.88;98712.87;1774011;78;20891;-52
2022/01/22 08:35:54;;;;;;;2.90;0.40;;;;;;;-0.58;68.97;98715.41;1789650;78;21969;-53
2022/01/22 08:38:24;;;;;;;1.30;0.50;;;;;;;-0.50;68.92;98714.80;1768841;78;21356;-52
2022/01/22 08:40:50;;;;;;;3.60;0.40;;;;;;;-0.44;68.70;98716.90;1768811;78;20992;-52
2022/01/22 08:43:18;;;;;;;1.47;0.50;;;;;;;-0.38;68.61;98713.25;1764148;79;20882;-52
2022/01/22 08:45:45;;;;;;;2.67;0.90;;;;;;;-0.29;68.45;98718.80;1775080;78;20914;-52
2022/01/22 08:48:12;;;;;;;3.10;0.77;;;;;;;-0.23;68.26;98715.55;1772940;78;20934;-52
2022/01/22 08:50:38;;;;;;;0.80;0.40;;;;;;;-0.19;68.11;98719.89;1768677;78;21112;-52
2022/01/22 08:53:05;;;;;;;1.30;0.40;;;;;;;-0.12;68.03;98712.69;1774134;80;21540;-52
2022/01/22 08:55:32;;;;;;;2.00;0.40;;;;;;;-0.04;67.95;98716.03;1745738;78;21745;-51
2022/01/22 08:57:58;;;;;;;1.07;0.40;;;;;;;0.02;67.37;98717.20;1768316;80;21040;-51
2022/01/22 09:00:39;;;;;;;1.03;0.40;;;;;;;0.06;67.30;98725.96;1771451;78;21789;-52
2022/01/22 09:03:10;;;;;;;1.27;0.43;;;;;;;0.10;67.01;98726.30;1785917;79;21038;-52
2022/01/22 09:05:56;;;;;;;2.40;0.50;;;;;;;0.10;66.82;98713.94;1706969;81;20894;-53
2022/01/22 09:08:27;;;;;;;1.47;0.50;;;;;;;0.12;66.55;98724.48;1656584;82;21686;-52
2022/01/22 09:11:12;;;;;;;0.90;0.40;;;;;;;0.14;66.62;98726.66;1725575;80;26662;-52
2022/01/22 09:13:57;;;;;;;1.57;0.50;;;;;;;0.16;66.36;98724.41;1766778;80;23927;-52
2022/01/22 09:16:25;;;;;;;1.43;0.47;;;;;;;0.17;66.21;98725.28;1766230;78;21535;-52
2022/01/22 09:18:54;;;;;;;2.00;0.50;;;;;;;0.15;66.18;98727.95;1770330;78;21005;-52
2022/01/22 09:21:20;;;;;;;2.30;0.60;;;;;;;0.16;66.17;98728.37;1763271;79;21370;-51
2022/01/22 09:23:47;;;;;;;1.20;0.43;;;;;;;0.21;66.11;98730.90;1760558;78;21545;-52
2022/01/22 09:26:19;;;;;;;1.90;0.60;;;;;;;0.24;65.92;98729.52;1768188;78;21072;-52
2022/01/22 09:28:47;;;;;;;1.13;0.57;;;;;;;0.24;65.79;98732.16;1773854;78;21131;-52
2022/01/22 09:33:45;;;;;;;2.27;0.80;;;;;;;0.21;65.67;98738.39;1848433;75;26495;-51
2022/01/22 09:36:31;;;;;;;1.80;0.50;;;;;;;0.16;65.73;98733.66;1805050;77;21060;-52
2022/01/22 09:39:16;;;;;;;1.10;0.40;;;;;;;0.16;65.73;98740.28;1813049;77;21204;-52
2022/01/22 09:41:48;;;;;;;1.40;0.50;;;;;;;0.15;65.53;98732.38;1808309;77;20974;-52
2022/01/22 09:44:22;;;;;;;2.60;0.60;;;;;;;0.15;65.57;98740.31;1805372;77;21575;-51
2022/01/22 09:47:03;;;;;;;1.67;0.50;;;;;;;0.15;65.62;98742.95;1782164;77;21072;-52
2022/01/22 09:49:32;;;;;;;1.00;0.70;;;;;;;0.12;65.54;98733.30;1806891;77;20968;-51
2022/01/22 09:52:06;;;;;;;2.92;0.53;;;;;;;0.13;65.48;98744.76;1761976;77;21132;-51
2022/01/22 09:54:46;;;;;;;1.57;0.43;;;;;;;0.11;65.67;98739.50;1751000;78;20948;-52
2022/01/22 09:57:28;;;;;;;1.83;1.33;;;;;;;0.12;65.71;98745.20;1721245;80;21015;-52
2022/01/22 09:59:56;;;;;;;1.90;0.60;;;;;;;0.14;65.85;98751.80;1758622;79;20917;-51
2022/01/22 10:02:27;;;;;;;1.53;0.50;;;;;;;0.11;65.96;98751.41;1738077;80;20882;-50
2022/01/22 10:04:55;;;;;;;1.00;0.50;;;;;;;0.11;65.73;98755.38;1744400;79;21123;-51
2022/01/22 10:07:27;;;;;;;1.17;0.50;;;;;;;0.07;65.70;98757.69;1742284;79;21139;-50
2022/01/22 10:10:12;;;;;;;;;;;;;;;0.06;65.79;98753.74;1748322;79;21111;-51
2022/01/22 10:12:45;;;;;;;1.50;0.60;;;;;;;0.04;65.84;98756.87;1736948;79;20661;-51
2022/01/22 10:15:22;;;;;;;2.87;0.60;;;;;;;0.03;66.03;98764.38;1743891;79;21119;-51
2022/01/22 10:17:51;;;;;;;1.87;0.50;;;;;;;0.03;65.90;98760.41;1740851;79;22239;-52
2022/01/22 10:20:27;;;;;;;1.40;0.73;;;;;;;0.00;65.64;98762.70;1747946;79;21089;-51
2022/01/22 10:23:05;;;;;;;1.00;0.40;;;;;;;-0.03;65.34;98763.63;1740525;79;21076;-51
2022/01/22 10:25:44;;;;;;;1.93;0.40;;;;;;;-0.02;65.26;98767.14;1739512;79;20965;-51
2022/01/22 10:28:19;;;;;;;1.23;0.50;;;;;;;-0.02;65.37;98765.38;1749529;79;21040;-51
2022/01/22 10:30:44;;;;;;;1.25;0.50;;;;;;;0.04;65.32;98754.22;1748822;80;22151;-51
2022/01/22 10:36:20;;;;;;;3.00;0.50;;;;;;;0.17;65.42;98759.20;1739227;80;21110;-51
2022/01/22 10:39:13;;;;;;;1.03;0.60;;;;;;;0.25;65.35;98745.81;1737898;80;21079;-51
2022/01/22 10:41:41;;;;;;;3.87;0.70;;;;;;;0.32;65.21;98748.73;1719113;80;21051;-51
2022/01/22 10:44:14;;;;;;;0.93;0.50;;;;;;;0.35;64.85;98744.67;1750106;80;21531;-51
2022/01/22 10:46:46;;;;;;;2.13;0.60;;;;;;;0.39;64.78;98739.74;1768407;78;21043;-52
2022/01/22 10:49:24;;;;;;;3.03;0.50;;;;;;;0.42;64.67;98746.30;1745637;80;21040;-51
2022/01/22 10:52:00;;;;;;;1.17;0.50;;;;;;;0.46;64.77;98748.41;1737856;80;21108;-51
2022/01/22 10:54:32;;;;;;;1.03;0.40;;;;;;;0.49;64.78;98754.51;1751957;80;21115;-50
2022/01/22 10:57:16;;;;;;;0.80;0.60;;;;;;;0.52;65.07;98756.19;1743776;80;21068;-50
2022/01/22 10:59:51;;;;;;;2.30;0.43;;;;;;;0.50;65.86;98752.73;1753273;80;21076;-50
2022/01/22 11:02:18;;;;;;;1.90;0.60;;;;;;;0.45;66.61;98757.25;1764658;78;21200;-51
2022/01/22 11:04:45;;;;;;;3.90;0.50;;;;;;;0.43;67.13;98773.61;1743469;80;21061;-52
2022/01/22 11:07:19;;;;;;;2.60;0.97;;;;;;;0.42;67.60;98770.58;1720878;80;21112;-51
2022/01/22 11:09:46;;;;;;;3.47;0.50;;;;;;;0.37;67.72;98760.95;1752015;79;21330;-50
2022/01/22 11:12:13;;;;;;;1.27;0.63;;;;;;;0.35;67.92;98768.05;1761488;79;21099;-51
2022/01/22 11:14:41;;;;;;;5.10;0.70;;;;;;;0.36;68.22;98761.85;1754551;79;21032;-50
2022/01/22 11:17:09;;;;;;;3.77;0.70;;;;;;;0.33;68.43;98758.42;1757090;79;21079;-50
2022/01/22 11:19:38;;;;;;;1.73;0.90;;;;;;;0.28;68.72;98768.23;1748994;80;21087;-50
2022/01/22 11:22:12;;;;;;;1.53;0.77;;;;;;;0.28;69.11;98765.58;1735570;80;21101;-50
2022/01/22 11:24:47;;;;;;;;;;;;;;;0.28;69.34;98771.75;1741264;80;21065;-50
2022/01/22 11:27:18;;;;;;;4.40;0.50;;;;;;;0.30;69.66;98772.59;1753193;79;20116;-50
2022/01/22 11:30:03;;;;;;;2.70;1.13;;;;;;;0.28;69.71;98769.55;1756426;79;21036;-49
2022/01/22 11:32:55;;;;;;;3.63;0.90;;;;;;;0.24;69.65;98772.73;1735242;80;20916;-51
2022/01/22 11:35:25;;;;;;;1.47;0.67;;;;;;;0.23;69.77;98766.15;1756512;79;21498;-50
2022/01/22 11:38:02;;;;;;;1.70;0.70;;;;;;;0.24;69.72;98766.57;1755572;79;21782;-49
2022/01/22 11:40:31;;;;;;;1.90;0.60;;;;;;;0.25;69.67;98773.61;1753799;79;20945;-50
2022/01/22 11:43:08;;;;;;;1.93;0.53;;;;;;;0.25;69.42;98770.96;1751708;79;20953;-51
2022/01/22 11:45:42;;;;;;;1.93;0.83;;;;;;;0.22;69.12;98775.86;1751404;79;21451;-51
2022/01/22 11:49:26;;;;;;;1.40;0.50;;;;;;;0.21;68.92;98775.44;1866590;75;26453;-48
2022/01/22 11:52:09;;;;;;;0.90;0.50;;;;;;;0.17;68.77;98772.91;1840356;77;20966;-49
2022/01/22 11:54:59;;;;;;;1.47;0.70;;;;;;;0.19;68.57;98786.50;1840220;76;21465;-49
2022/01/22 11:57:30;;;;;;;2.10;0.60;;;;;;;0.22;68.47;98786.90;1848995;76;20906;-50
2022/01/22 12:00:18;;;;;;;1.10;0.50;;;;;;;0.20;68.28;98786.92;1845327;75;20886;-50
2022/01/22 12:02:45;;;;;;;1.87;0.40;;;;;;;0.24;68.23;98793.03;1844619;75;20909;-49
2022/01/22 12:05:12;;;;;;;2.23;1.07;;;;;;;0.27;68.06;98791.63;1851932;75;20945;-50
2022/01/22 12:07:38;;;;;;;1.30;0.60;;;;;;;0.28;67.90;98798.66;1850296;75;21751;-48
2022/01/22 12:10:20;;;;;;;1.10;0.60;;;;;;;0.30;67.73;98800.83;1848664;75;20949;-49
2022/01/22 12:15:49;;;;;;;2.20;0.60;;;;;;;0.25;67.68;98800.08;1825876;75;21309;-51
2022/01/22 12:18:18;;;;;;;1.53;0.60;;;;;;;0.21;67.65;98802.36;1850627;75;21447;-49
2022/01/22 12:23:33;;;;;;;2.67;0.75;;;;;;;0.24;67.67;98811.11;1806583;77;20981;-50
2022/01/22 12:26:03;;;;;;;1.70;0.60;;;;;;;0.27;67.72;98813.67;1760791;78;21463;-50
2022/01/22 12:28:43;;;;;;;1.80;0.70;;;;;;;0.29;67.77;98814.97;1780689;78;20906;-52
2022/01/22 12:31:15;;;;;;;2.33;0.67;;;;;;;0.27;67.92;98816.31;1788390;78;21615;-52
2022/01/22 12:33:44;;;;;;;2.70;1.27;;;;;;;0.28;68.06;98815.87;1784420;79;22239;-51
2022/01/22 12:36:19;;;;;;;3.23;0.60;;;;;;;0.27;67.94;98815.45;1786792;79;21458;-50
2022/01/22 12:39:06;;;;;;;2.60;0.60;;;;;;;0.23;67.63;98816.44;1790450;78;21077;-50
2022/01/22 12:46:58;;;;;;;1.77;0.60;;;;;;;0.20;67.37;98827.95;1792889;78;22117;-50
2022/01/22 12:49:26;;;;;;;2.07;0.70;;;;;;;0.20;67.26;98838.53;1785728;79;21025;-50
2022/01/22 12:51:58;;;;;;;2.10;0.70;;;;;;;0.19;67.32;98842.53;1786091;78;21346;-49
2022/01/22 12:54:35;;;;;;;0.60;0.30;;;;;;;0.18;67.31;98851.37;1786779;79;21467;-49
2022/01/22 12:57:07;;;;;;;0.60;0.23;;;;;;;0.12;67.72;98864.29;1782685;78;21037;-50
2022/01/22 13:00:00;;;;;;;0.70;0.30;;;;;;;-0.08;68.94;98864.67;1787589;78;22655;-49
2022/01/22 13:02:25;;;;;;;0.40;0.20;;;;;;;-0.29;69.46;98870.40;1782470;78;21012;-51
2022/01/22 13:04:59;;;;;;;0.50;0.10;;;;;;;-0.47;69.88;98891.88;1756240;79;21115;-51
2022/01/22 13:07:27;;;;;;;0.60;0.20;;;;;;;-0.63;70.55;98887.31;1780284;79;21408;-52
2022/01/22 13:10:12;;;;;;;1.17;0.20;;;;;;;-0.77;71.14;98885.37;1781480;78;21080;-51
2022/01/22 13:12:44;;;;;;;0.40;0.20;;;;;;;-0.83;71.68;98900.85;1786986;78;21518;-52
2022/01/22 13:15:11;;;;;;;2.73;0.20;;;;;;;-0.87;72.10;98899.62;1784374;78;21039;-52
2022/01/22 13:17:38;;;;;;;0.73;0.30;;;;;;;-0.92;72.43;98898.36;1758216;78;21238;-52
2022/01/22 13:20:06;;;;;;;0.50;0.20;;;;;;;-0.91;72.58;98909.80;1782417;79;21049;-52
2022/01/22 13:22:36;;;;;;;0.50;0.30;;;;;;;-0.94;72.66;98908.55;1790448;78;21041;-52
2022/01/22 13:25:12;;;;;;;0.77;0.40;;;;;;;-0.94;72.99;98910.74;1756684;79;21124;-51
2022/01/22 13:27:40;;;;;;;1.30;0.33;;;;;;;-0.90;73.08;98917.70;1792089;79;21096;-51
2022/01/22 13:30:09;;;;;;;0.73;0.40;;;;;;;-0.88;73.13;98913.28;1788867;78;22443;-50
2022/01/22 13:32:54;;;;;;;2.30;0.40;;;;;;;-0.86;73.30;98926.02;1787609;78;21048;-50